createdAt,value
2022-08-30T00:01:00.452Z,17.50
2022-08-30T00:03:27.556Z,17.50
2022-08-30T00:05:56.333Z,17.40
2022-08-30T00:08:23.543Z,17.40
2022-08-30T00:10:51.291Z,17.30
2022-08-30T00:13:18.903Z,17.30
2022-08-30T00:15:46.376Z,17.30
2022-08-30T00:18:13.461Z,17.20
2022-08-30T00:20:40.722Z,17.20
2022-08-30T00:23:07.703Z,17.10
2022-08-30T00:25:34.833Z,17.10
2022-08-30T00:28:02.582Z,17.00
2022-08-30T00:30:29.706Z,17.00
2022-08-30T00:32:56.710Z,16.90
2022-08-30T00:35:23.835Z,16.90
2022-08-30T00:37:50.962Z,16.90
2022-08-30T00:40:20.509Z,16.90
2022-08-30T00:42:59.286Z,16.80
2022-08-30T00:45:32.518Z,16.80
2022-08-30T00:47:59.622Z,16.80
2022-08-30T00:50:29.555Z,16.80
2022-08-30T00:52:58.314Z,16.80
2022-08-30T00:55:25.362Z,16.80
2022-08-30T00:57:54.275Z,16.80
2022-08-30T01:00:21.264Z,16.70
2022-08-30T01:02:49.132Z,16.70
2022-08-30T01:05:18.603Z,16.60
2022-08-30T01:07:45.560Z,16.60
2022-08-30T01:10:13.482Z,16.60
2022-08-30T01:12:40.726Z,16.60
2022-08-30T01:15:08.422Z,16.60
2022-08-30T01:17:35.506Z,16.50
2022-08-30T01:20:07.304Z,16.50
2022-08-30T01:22:52.588Z,16.50
2022-08-30T01:25:25.178Z,16.60
2022-08-30T01:28:03.975Z,16.50
2022-08-30T01:30:31.614Z,16.50
2022-08-30T01:33:03.644Z,16.50
2022-08-30T01:35:35.528Z,16.50
2022-08-30T01:38:02.509Z,16.50
2022-08-30T01:40:29.643Z,16.40
2022-08-30T01:42:56.600Z,16.40
2022-08-30T01:45:23.573Z,16.40
2022-08-30T01:47:50.699Z,16.50
2022-08-30T01:50:17.736Z,16.50
2022-08-30T01:52:44.907Z,16.50
2022-08-30T01:55:11.848Z,16.50
2022-08-30T01:57:38.765Z,16.50
2022-08-30T02:00:07.640Z,16.50
2022-08-30T02:02:38.790Z,16.50
2022-08-30T02:05:06.282Z,16.50
2022-08-30T02:07:33.251Z,16.40
2022-08-30T02:10:00.190Z,16.50
2022-08-30T02:12:27.691Z,16.50
2022-08-30T02:14:54.696Z,16.50
2022-08-30T02:17:21.726Z,16.50
2022-08-30T02:19:48.738Z,16.50
2022-08-30T02:22:16.765Z,16.60
2022-08-30T02:24:43.749Z,16.50
2022-08-30T02:27:10.650Z,16.50
2022-08-30T02:29:37.564Z,16.40
2022-08-30T02:32:04.555Z,16.40
2022-08-30T02:34:31.625Z,16.40
2022-08-30T02:36:58.724Z,16.40
2022-08-30T02:39:25.807Z,16.40
2022-08-30T02:41:52.689Z,16.40
2022-08-30T02:44:19.702Z,16.30
2022-08-30T02:46:46.637Z,16.30
2022-08-30T02:49:32.521Z,16.30
2022-08-30T02:52:00.139Z,16.30
2022-08-30T02:54:28.527Z,16.30
2022-08-30T02:56:58.707Z,16.30
2022-08-30T02:59:26.925Z,16.30
2022-08-30T03:01:53.801Z,16.20
2022-08-30T03:04:26.554Z,16.20
2022-08-30T03:06:54.351Z,16.20
2022-08-30T03:09:22.351Z,16.10
2022-08-30T03:11:49.281Z,16.10
2022-08-30T03:14:16.393Z,16.00
2022-08-30T03:16:43.363Z,16.10
2022-08-30T03:19:10.326Z,16.00
2022-08-30T03:21:37.726Z,16.00
2022-08-30T03:24:04.853Z,16.00
2022-08-30T03:26:31.825Z,16.00
2022-08-30T03:28:59.297Z,16.00
2022-08-30T03:31:26.271Z,16.00
2022-08-30T03:33:53.483Z,16.00
2022-08-30T03:36:21.139Z,15.90
2022-08-30T03:38:48.037Z,15.90
2022-08-30T03:41:16.187Z,15.90
2022-08-30T03:43:44.216Z,15.90
2022-08-30T03:46:11.406Z,15.90
2022-08-30T03:48:38.520Z,15.90
2022-08-30T03:51:06.016Z,15.90
2022-08-30T03:53:33.329Z,15.80
2022-08-30T03:56:00.286Z,15.80
2022-08-30T03:58:27.222Z,15.80
2022-08-30T04:00:54.198Z,15.70
2022-08-30T04:03:25.921Z,15.70
2022-08-30T04:05:53.762Z,15.70
2022-08-30T04:08:20.834Z,15.70
2022-08-30T04:10:48.130Z,15.60
2022-08-30T04:13:15.849Z,15.60
2022-08-30T04:15:43.146Z,15.60
2022-08-30T04:18:10.312Z,15.60
2022-08-30T04:20:37.811Z,15.60
2022-08-30T04:23:07.470Z,15.60
2022-08-30T04:25:35.393Z,15.70
2022-08-30T04:28:02.893Z,15.60
2022-08-30T04:30:29.895Z,15.60
2022-08-30T04:32:58.848Z,15.60
2022-08-30T04:35:26.140Z,15.60
2022-08-30T04:37:53.037Z,15.60
2022-08-30T04:40:20.621Z,15.60
2022-08-30T04:42:47.736Z,15.60
2022-08-30T04:45:15.932Z,15.60
2022-08-30T04:47:43.310Z,15.50
2022-08-30T04:50:11.732Z,15.50
2022-08-30T04:52:38.813Z,15.50
2022-08-30T04:55:06.485Z,15.50
2022-08-30T04:57:33.521Z,15.50
2022-08-30T05:00:00.648Z,15.50
2022-08-30T05:02:27.767Z,15.60
2022-08-30T05:05:14.166Z,15.60
2022-08-30T05:07:41.341Z,15.70
2022-08-30T05:10:11.387Z,15.70
2022-08-30T05:12:39.216Z,15.70
2022-08-30T05:15:06.652Z,15.70
2022-08-30T05:17:33.987Z,15.80
2022-08-30T05:20:02.306Z,15.90
2022-08-30T05:22:29.274Z,15.80
2022-08-30T05:24:56.486Z,15.90
2022-08-30T05:27:23.417Z,16.00
2022-08-30T05:29:50.379Z,16.00
2022-08-30T05:32:17.982Z,16.10
2022-08-30T05:34:45.053Z,16.00
2022-08-30T05:37:11.970Z,16.10
2022-08-30T05:39:50.885Z,16.10
2022-08-30T05:42:19.276Z,16.20
2022-08-30T05:44:46.376Z,16.20
2022-08-30T05:47:13.286Z,16.20
2022-08-30T05:49:40.242Z,16.30
2022-08-30T05:52:07.268Z,16.30
2022-08-30T05:54:34.269Z,16.30
2022-08-30T05:57:01.203Z,16.30
2022-08-30T05:59:28.130Z,16.40
2022-08-30T06:01:57.356Z,16.40
2022-08-30T06:04:24.536Z,16.40
2022-08-30T06:06:51.770Z,16.40
2022-08-30T06:09:19.700Z,16.50
2022-08-30T06:11:46.850Z,16.50
2022-08-30T06:14:14.122Z,16.50
2022-08-30T06:16:41.272Z,16.50
2022-08-30T06:19:08.626Z,16.60
2022-08-30T06:21:36.085Z,16.60
2022-08-30T06:24:03.953Z,16.60
2022-08-30T06:29:03.009Z,16.70
2022-08-30T06:31:29.970Z,16.70
2022-08-30T06:33:56.960Z,16.80
2022-08-30T06:36:24.786Z,16.80
2022-08-30T06:38:52.967Z,16.80
2022-08-30T06:41:22.453Z,16.80
2022-08-30T06:43:49.607Z,16.90
2022-08-30T06:46:19.234Z,17.00
2022-08-30T06:48:48.285Z,17.00
2022-08-30T06:51:16.104Z,17.00
2022-08-30T06:53:43.228Z,17.00
2022-08-30T06:56:10.751Z,17.10
2022-08-30T06:58:38.678Z,17.10
2022-08-30T07:01:06.254Z,17.20
2022-08-30T07:03:34.449Z,17.30
2022-08-30T07:06:01.358Z,17.30
2022-08-30T07:08:28.335Z,17.40
2022-08-30T07:10:55.306Z,17.50
2022-08-30T07:13:24.013Z,17.60
2022-08-30T07:15:51.320Z,17.70
2022-08-30T07:18:36.700Z,17.70
2022-08-30T07:21:08.650Z,17.80
2022-08-30T07:23:35.793Z,17.80
2022-08-30T07:26:10.435Z,17.80
2022-08-30T07:28:38.178Z,17.90
2022-08-30T07:33:38.337Z,17.90
2022-08-30T07:36:05.510Z,18.00
2022-08-30T07:38:32.453Z,18.10
2022-08-30T07:41:01.222Z,18.20
2022-08-30T07:43:29.098Z,18.30
2022-08-30T07:45:58.111Z,18.40
2022-08-30T07:48:25.140Z,18.50
2022-08-30T07:50:57.066Z,18.50
2022-08-30T07:53:25.422Z,18.70
2022-08-30T07:55:52.513Z,18.80
2022-08-30T07:58:19.776Z,18.90
2022-08-30T08:00:47.548Z,18.90
2022-08-30T08:03:14.537Z,18.80
2022-08-30T08:05:42.616Z,18.90
2022-08-30T08:08:10.067Z,18.80
2022-08-30T08:10:38.335Z,19.00
2022-08-30T08:13:05.843Z,19.00
2022-08-30T08:15:33.055Z,19.10
2022-08-30T08:18:01.282Z,19.20
2022-08-30T08:20:28.589Z,19.20
2022-08-30T08:22:55.706Z,19.40
2022-08-30T08:25:23.296Z,19.50
2022-08-30T08:27:50.955Z,19.50
2022-08-30T08:30:21.624Z,19.50
2022-08-30T08:32:48.868Z,19.50
2022-08-30T08:35:16.604Z,19.50
2022-08-30T08:37:43.790Z,19.50
2022-08-30T08:40:14.540Z,19.60
2022-08-30T08:43:05.529Z,19.50
2022-08-30T08:45:39.072Z,19.50
2022-08-30T08:48:20.505Z,19.40
2022-08-30T08:51:10.795Z,19.40
2022-08-30T08:53:46.512Z,19.40
2022-08-30T08:56:15.685Z,19.50
2022-08-30T08:58:47.625Z,19.60
2022-08-30T09:01:16.232Z,19.70
2022-08-30T09:03:43.402Z,19.80
2022-08-30T09:06:49.121Z,19.90
2022-08-30T09:09:18.298Z,20.00
2022-08-30T09:11:46.282Z,20.20
2022-08-30T09:14:16.970Z,20.40
2022-08-30T09:16:47.925Z,20.80
2022-08-30T09:19:29.517Z,21.00
2022-08-30T09:22:04.219Z,21.10
2022-08-30T09:24:42.818Z,21.30
2022-08-30T09:27:25.269Z,21.50
2022-08-30T09:29:57.310Z,21.70
2022-08-30T09:32:33.190Z,22.00
2022-08-30T09:35:00.301Z,22.00
2022-08-30T09:37:28.413Z,22.10
2022-08-30T09:39:55.542Z,22.20
2022-08-30T09:42:25.480Z,22.20
2022-08-30T09:45:10.511Z,22.40
2022-08-30T09:47:44.188Z,22.40
2022-08-30T09:50:16.817Z,22.50
2022-08-30T09:53:23.872Z,22.70
2022-08-30T09:56:03.891Z,22.90
2022-08-30T09:59:00.110Z,23.00
2022-08-30T10:01:33.109Z,23.20
2022-08-30T10:04:14.014Z,23.50
2022-08-30T10:06:46.567Z,23.50
2022-08-30T10:09:32.213Z,23.50
2022-08-30T10:12:02.269Z,23.70
2022-08-30T10:14:57.272Z,23.70
2022-08-30T10:17:42.263Z,23.80
2022-08-30T10:20:35.056Z,23.70
2022-08-30T10:23:09.543Z,23.50
2022-08-30T10:25:51.951Z,23.40
2022-08-30T10:28:31.291Z,23.40
2022-08-30T10:31:04.079Z,23.50
2022-08-30T10:33:45.631Z,23.60
2022-08-30T10:36:13.661Z,23.80
2022-08-30T10:38:42.612Z,24.00
2022-08-30T10:41:38.598Z,24.20
2022-08-30T10:44:38.199Z,24.20
2022-08-30T10:50:41.518Z,24.20
2022-08-30T10:53:19.359Z,24.00
2022-08-30T10:55:50.385Z,24.30
2022-08-30T10:58:18.583Z,24.20
2022-08-30T11:01:00.687Z,24.20
2022-08-30T11:03:46.093Z,24.20
2022-08-30T11:06:33.336Z,24.50
2022-08-30T11:09:18.726Z,24.60
2022-08-30T11:12:31.137Z,24.50
2022-08-30T11:14:59.240Z,24.60
2022-08-30T11:17:30.695Z,24.60
2022-08-30T11:19:59.232Z,24.70
2022-08-30T11:22:39.039Z,25.00
2022-08-30T11:25:17.067Z,25.20
2022-08-30T11:27:53.170Z,25.30
2022-08-30T11:30:26.684Z,25.30
2022-08-30T11:32:58.172Z,25.20
2022-08-30T11:35:48.439Z,25.00
2022-08-30T11:38:30.719Z,24.90
2022-08-30T11:41:00.441Z,24.80
2022-08-30T11:43:47.485Z,24.90
2022-08-30T11:46:20.337Z,25.00
2022-08-30T11:48:55.463Z,25.10
2022-08-30T11:52:23.754Z,25.10
2022-08-30T11:55:07.053Z,25.00
2022-08-30T11:57:52.745Z,25.00
2022-08-30T12:00:30.011Z,25.40
2022-08-30T12:03:03.761Z,25.40
2022-08-30T12:05:40.029Z,25.20
2022-08-30T12:08:35.069Z,25.20
2022-08-30T12:11:12.438Z,25.10
2022-08-30T12:13:42.432Z,24.90
2022-08-30T12:16:13.923Z,24.80
2022-08-30T12:18:52.865Z,24.60
2022-08-30T12:21:22.245Z,24.30
2022-08-30T12:24:21.327Z,24.30
2022-08-30T12:26:51.165Z,24.10
2022-08-30T12:29:20.429Z,24.10
2022-08-30T12:31:55.807Z,24.10
2022-08-30T12:34:41.977Z,24.20
2022-08-30T12:37:13.195Z,24.30
2022-08-30T12:39:42.038Z,24.70
2022-08-30T12:42:14.672Z,24.90
2022-08-30T12:44:45.291Z,25.00
2022-08-30T12:47:12.806Z,24.90
2022-08-30T12:49:42.789Z,24.80
2022-08-30T12:52:29.744Z,24.70
2022-08-30T12:55:05.176Z,24.60
2022-08-30T12:58:00.778Z,24.40
2022-08-30T13:00:48.816Z,24.30
2022-08-30T13:03:33.340Z,24.30
2022-08-30T13:06:00.535Z,24.40
2022-08-30T13:08:45.709Z,24.30
2022-08-30T13:11:25.024Z,24.40
2022-08-30T13:14:30.473Z,24.30
2022-08-30T13:17:27.855Z,24.40
2022-08-30T13:19:59.416Z,24.40
2022-08-30T13:22:26.376Z,24.30
2022-08-30T13:24:54.149Z,24.30
2022-08-30T13:27:21.347Z,24.30
2022-08-30T13:29:48.960Z,24.20
2022-08-30T13:32:16.858Z,24.20
2022-08-30T13:34:44.061Z,24.20
2022-08-30T13:40:04.848Z,24.20
2022-08-30T13:42:32.481Z,24.30
2022-08-30T13:44:59.662Z,24.30
2022-08-30T13:47:35.010Z,24.50
2022-08-30T13:50:02.360Z,24.50
2022-08-30T13:52:29.474Z,24.50
2022-08-30T13:54:57.207Z,24.50
2022-08-30T14:00:19.208Z,24.40
2022-08-30T14:02:53.824Z,24.30
2022-08-30T14:11:01.336Z,24.00
2022-08-30T14:13:29.339Z,23.80
2022-08-30T14:18:44.855Z,23.50
2022-08-30T14:21:12.291Z,23.50
2022-08-30T14:23:39.301Z,23.50
2022-08-30T14:26:12.022Z,23.60
2022-08-30T14:28:39.340Z,23.70
2022-08-30T14:31:06.485Z,23.80
2022-08-30T14:33:33.555Z,23.80
2022-08-30T14:36:00.513Z,24.00
2022-08-30T14:38:27.617Z,24.10
2022-08-30T14:40:54.639Z,24.30
2022-08-30T14:43:21.785Z,24.20
2022-08-30T14:45:50.877Z,24.20
2022-08-30T14:48:18.052Z,24.20
2022-08-30T14:50:46.891Z,24.20
2022-08-30T14:53:13.906Z,24.30
2022-08-30T14:55:41.111Z,24.50
2022-08-30T14:58:10.742Z,24.60
2022-08-30T15:00:38.588Z,24.70
2022-08-30T15:03:05.780Z,24.60
2022-08-30T15:05:33.801Z,24.40
2022-08-30T15:08:01.049Z,24.00
2022-08-30T15:10:27.974Z,23.90
2022-08-30T15:12:55.013Z,23.70
2022-08-30T15:15:22.167Z,23.70
2022-08-30T15:17:49.464Z,23.60
2022-08-30T15:20:18.889Z,23.50
2022-08-30T15:22:46.247Z,23.50
2022-08-30T15:25:13.506Z,23.50
2022-08-30T15:27:40.463Z,23.40
2022-08-30T15:30:07.946Z,23.20
2022-08-30T15:32:37.920Z,23.20
2022-08-30T15:35:06.015Z,23.20
2022-08-30T15:37:34.995Z,23.20
2022-08-30T15:40:04.603Z,23.20
2022-08-30T15:42:32.143Z,23.10
2022-08-30T15:45:00.078Z,23.00
2022-08-30T15:47:27.119Z,22.90
2022-08-30T15:49:58.423Z,23.00
2022-08-30T15:52:25.690Z,23.10
2022-08-30T15:54:54.562Z,23.20
2022-08-30T15:57:22.023Z,23.30
2022-08-30T15:59:49.354Z,23.20
2022-08-30T16:02:16.770Z,23.10
2022-08-30T16:04:44.270Z,23.10
2022-08-30T16:07:13.835Z,23.00
2022-08-30T16:09:41.232Z,23.00
2022-08-30T16:12:11.393Z,22.90
2022-08-30T16:14:38.824Z,22.90
2022-08-30T16:17:06.433Z,22.80
2022-08-30T16:19:33.507Z,22.70
2022-08-30T16:22:01.198Z,22.70
2022-08-30T16:24:28.287Z,22.70
2022-08-30T16:26:55.868Z,22.70
2022-08-30T16:29:23.032Z,22.80
2022-08-30T16:31:50.194Z,22.80
2022-08-30T16:34:18.435Z,22.80
2022-08-30T16:36:45.630Z,22.80
2022-08-30T16:39:13.512Z,22.80
2022-08-30T16:41:41.705Z,22.70
2022-08-30T16:44:08.710Z,22.70
2022-08-30T16:46:40.305Z,22.80
2022-08-30T16:49:08.798Z,22.70
2022-08-30T16:51:36.197Z,22.80
2022-08-30T16:54:04.792Z,22.80
2022-08-30T16:56:32.331Z,22.60
2022-08-30T16:59:11.682Z,22.50
2022-08-30T17:01:39.868Z,22.50
2022-08-30T17:04:08.248Z,22.50
2022-08-30T17:06:35.842Z,22.50
2022-08-30T17:09:03.942Z,22.50
2022-08-30T17:11:32.527Z,22.50
2022-08-30T17:13:59.681Z,22.50
2022-08-30T17:16:29.956Z,22.50
2022-08-30T17:19:00.626Z,22.30
2022-08-30T17:21:29.313Z,22.20
2022-08-30T17:23:58.566Z,22.20
2022-08-30T17:26:33.339Z,22.20
2022-08-30T17:29:00.591Z,22.20
2022-08-30T17:31:30.667Z,22.10
2022-08-30T17:34:03.148Z,22.00
2022-08-30T17:36:35.491Z,22.00
2022-08-30T17:39:10.588Z,21.90
2022-08-30T17:41:39.726Z,21.80
2022-08-30T17:44:11.137Z,21.80
2022-08-30T17:46:38.146Z,21.60
2022-08-30T17:49:05.416Z,21.60
2022-08-30T17:51:32.549Z,21.60
2022-08-30T17:53:59.878Z,21.70
2022-08-30T17:56:33.980Z,21.70
2022-08-30T17:59:04.976Z,21.60
2022-08-30T18:01:32.299Z,21.60
2022-08-30T18:04:01.651Z,21.60
2022-08-30T18:06:29.500Z,21.50
2022-08-30T18:08:56.896Z,21.50
2022-08-30T18:11:24.075Z,21.50
2022-08-30T18:13:51.066Z,21.40
2022-08-30T18:16:21.536Z,21.40
2022-08-30T18:18:56.921Z,21.40
2022-08-30T18:21:41.433Z,21.40
2022-08-30T18:24:08.463Z,21.40
2022-08-30T18:26:35.812Z,21.30
2022-08-30T18:29:04.140Z,21.30
2022-08-30T18:31:31.097Z,21.20
2022-08-30T18:34:00.349Z,21.20
2022-08-30T18:36:28.695Z,21.20
2022-08-30T18:38:55.851Z,21.10
2022-08-30T18:41:23.658Z,21.00
2022-08-30T18:44:05.871Z,21.00
2022-08-30T18:46:51.269Z,20.90
2022-08-30T18:49:32.198Z,20.80
2022-08-30T18:52:01.500Z,20.70
2022-08-30T18:54:30.409Z,20.70
2022-08-30T18:56:58.790Z,20.70
2022-08-30T18:59:35.755Z,20.60
2022-08-30T19:02:05.077Z,20.60
2022-08-30T19:04:35.412Z,20.60
2022-08-30T19:07:04.990Z,20.60
2022-08-30T19:09:32.031Z,20.50
2022-08-30T19:11:59.376Z,20.50
2022-08-30T19:14:28.059Z,20.40
2022-08-30T19:16:56.677Z,20.40
2022-08-30T19:19:23.840Z,20.40
2022-08-30T19:21:51.744Z,20.40
2022-08-30T19:24:19.677Z,20.40
2022-08-30T19:26:47.143Z,20.40
2022-08-30T19:29:14.459Z,20.40
2022-08-30T19:31:42.120Z,20.40
2022-08-30T19:34:09.456Z,20.40
2022-08-30T19:36:36.460Z,20.30
2022-08-30T19:39:03.744Z,20.30
2022-08-30T19:41:30.798Z,20.20
2022-08-30T19:43:58.086Z,20.20
2022-08-30T19:46:28.184Z,20.20
2022-08-30T19:48:55.288Z,20.20
2022-08-30T19:51:22.630Z,20.10
2022-08-30T19:53:49.715Z,20.00
2022-08-30T19:56:17.681Z,20.00
2022-08-30T19:58:44.752Z,20.00
2022-08-30T20:01:12.930Z,19.90
2022-08-30T20:04:01.896Z,19.80
2022-08-30T20:06:29.539Z,19.80
2022-08-30T20:08:56.823Z,19.70
2022-08-30T20:11:25.381Z,19.70
2022-08-30T20:13:52.498Z,19.60
2022-08-30T20:16:20.590Z,19.60
2022-08-30T20:18:49.041Z,19.50
2022-08-30T20:21:16.165Z,19.50
2022-08-30T20:23:43.321Z,19.50
2022-08-30T20:26:10.742Z,19.40
2022-08-30T20:28:37.792Z,19.40
2022-08-30T20:31:05.737Z,19.30
2022-08-30T20:33:33.967Z,19.30
2022-08-30T20:36:01.692Z,19.30
2022-08-30T20:38:28.704Z,19.20
2022-08-30T20:40:56.935Z,19.20
2022-08-30T20:43:25.447Z,19.10
2022-08-30T20:45:52.966Z,19.10
2022-08-30T20:48:20.601Z,19.10
2022-08-30T20:50:47.743Z,19.10
2022-08-30T20:53:15.036Z,19.00
2022-08-30T20:55:46.612Z,19.00
2022-08-30T20:58:14.573Z,19.00
2022-08-30T21:00:45.879Z,19.00
2022-08-30T21:03:26.181Z,19.00
2022-08-30T21:05:55.653Z,19.00
2022-08-30T21:08:22.722Z,18.90
2022-08-30T21:10:49.838Z,18.90
2022-08-30T21:13:17.330Z,18.90
2022-08-30T21:15:46.225Z,18.90
2022-08-30T21:18:14.159Z,18.90
2022-08-30T21:20:41.341Z,18.80
2022-08-30T21:23:08.257Z,18.80
2022-08-30T21:25:41.277Z,18.80
2022-08-30T21:28:08.905Z,18.80
2022-08-30T21:30:36.291Z,18.80
2022-08-30T21:33:04.291Z,18.80
2022-08-30T21:35:50.153Z,18.70
2022-08-30T21:38:17.481Z,18.70
2022-08-30T21:40:44.860Z,18.60
2022-08-30T21:43:12.034Z,18.60
2022-08-30T21:45:42.478Z,18.60
2022-08-30T21:48:10.676Z,18.60
2022-08-30T21:50:43.511Z,18.50
2022-08-30T21:53:10.635Z,18.40
2022-08-30T21:55:37.736Z,18.40
2022-08-30T21:58:04.832Z,18.40
2022-08-30T22:00:33.675Z,18.40
2022-08-30T22:03:00.862Z,18.40
2022-08-30T22:05:28.137Z,18.40
2022-08-30T22:07:55.062Z,18.40
2022-08-30T22:10:22.117Z,18.40
2022-08-30T22:12:49.122Z,18.30
2022-08-30T22:15:16.373Z,18.30
2022-08-30T22:17:43.721Z,18.30
2022-08-30T22:20:11.932Z,18.30
2022-08-30T22:22:45.544Z,18.20
2022-08-30T22:25:12.525Z,18.20
2022-08-30T22:27:39.635Z,18.20
2022-08-30T22:30:07.133Z,18.20
2022-08-30T22:32:34.316Z,18.20
2022-08-30T22:35:01.236Z,18.10
2022-08-30T22:37:30.171Z,18.20
2022-08-30T22:39:57.130Z,18.20
2022-08-30T22:42:24.390Z,18.20
2022-08-30T22:44:52.301Z,18.20
2022-08-30T22:47:19.334Z,18.20
2022-08-30T22:49:46.248Z,18.20
2022-08-30T22:52:14.406Z,18.20
2022-08-30T22:54:41.339Z,18.10
2022-08-30T22:57:09.264Z,18.10
2022-08-30T22:59:36.247Z,18.10
2022-08-30T23:02:03.526Z,18.10
2022-08-30T23:04:37.295Z,18.10
2022-08-30T23:07:04.556Z,18.00
2022-08-30T23:09:31.522Z,18.00
2022-08-30T23:11:58.451Z,18.00
2022-08-30T23:14:25.466Z,18.00
2022-08-30T23:16:52.644Z,17.90
2022-08-30T23:19:19.810Z,17.90
2022-08-30T23:21:46.766Z,17.90
2022-08-30T23:24:32.095Z,17.90
2022-08-30T23:27:18.007Z,17.80
2022-08-30T23:30:04.296Z,17.80
2022-08-30T23:32:49.643Z,17.80
2022-08-30T23:35:35.236Z,17.80
2022-08-30T23:38:24.364Z,17.80
2022-08-30T23:41:09.796Z,17.70
2022-08-30T23:43:55.494Z,17.70
2022-08-30T23:46:40.870Z,17.60
2022-08-30T23:49:26.275Z,17.60
2022-08-30T23:52:11.781Z,17.60
2022-08-30T23:54:57.643Z,17.60
2022-08-30T23:57:44.218Z,17.50
